createdAt,value
2022-09-25T00:02:59.548Z,99871.78
2022-09-25T00:06:05.230Z,99872.84
2022-09-25T00:09:10.182Z,99873.81
2022-09-25T00:12:13.407Z,99870.34
2022-09-25T00:15:16.501Z,99870.34
2022-09-25T00:18:42.345Z,99868.59
2022-09-25T00:21:44.750Z,99870.34
2022-09-25T00:24:47.689Z,99868.59
2022-09-25T00:27:54.656Z,99858.84
2022-09-25T00:30:57.449Z,99861.38
2022-09-25T00:34:03.592Z,99861.47
2022-09-25T00:37:07.432Z,99865.09
2022-09-25T00:40:11.284Z,99861.38
2022-09-25T00:43:15.908Z,99864.31
2022-09-25T00:46:23.832Z,99865.28
2022-09-25T00:49:28.304Z,99863.53
2022-09-25T00:52:32.884Z,99857.19
2022-09-25T00:55:39.851Z,99855.34
2022-09-25T00:58:43.331Z,99843.91
2022-09-25T01:01:46.877Z,99855.16
2022-09-25T01:04:52.591Z,99852.44
2022-09-25T01:07:58.433Z,99849.16
2022-09-25T01:11:02.106Z,99860.50
2022-09-25T01:14:07.168Z,99854.19
2022-09-25T01:17:19.294Z,99852.44
2022-09-25T01:20:39.562Z,99853.31
2022-09-25T01:24:21.174Z,99845.25
2022-09-25T01:27:35.362Z,99847.00
2022-09-25T01:30:43.773Z,99847.88
2022-09-25T01:33:51.723Z,99837.31
2022-09-25T01:36:59.905Z,99849.63
2022-09-25T01:40:09.180Z,99842.84
2022-09-25T01:43:16.801Z,99844.28
2022-09-25T01:46:23.183Z,99847.78
2022-09-25T01:49:31.803Z,99849.63
2022-09-25T01:52:40.097Z,99839.88
2022-09-25T01:55:49.097Z,99837.41
2022-09-25T01:58:56.588Z,99835.81
2022-09-25T02:02:04.480Z,99831.31
2022-09-25T02:05:13.413Z,99840.69
2022-09-25T02:08:22.162Z,99839.81
2022-09-25T02:11:30.929Z,99835.16
2022-09-25T02:14:36.944Z,99837.66
2022-09-25T02:18:03.705Z,99829.31
2022-09-25T02:21:15.375Z,99828.25
2022-09-25T02:24:21.933Z,99831.63
2022-09-25T02:27:27.873Z,99832.41
2022-09-25T02:30:31.041Z,99841.22
2022-09-25T02:33:35.949Z,99843.09
2022-09-25T02:36:38.723Z,99839.28
2022-09-25T02:39:43.404Z,99840.06
2022-09-25T02:42:51.466Z,99831.22
2022-09-25T02:46:05.490Z,99824.78
2022-09-25T02:49:23.551Z,99826.78
2022-09-25T02:52:35.279Z,99826.78
2022-09-25T02:55:41.735Z,99832.22
2022-09-25T02:58:51.179Z,99834.94
2022-09-25T03:01:55.195Z,99832.22
2022-09-25T03:05:01.927Z,99826.78
2022-09-25T03:08:23.152Z,99831.53
2022-09-25T03:11:27.784Z,99825.91
2022-09-25T03:14:30.730Z,99817.59
2022-09-25T03:17:33.790Z,99825.66
2022-09-25T03:20:38.556Z,99824.78
2022-09-25T03:23:41.650Z,99827.53
2022-09-25T03:26:44.991Z,99821.34
2022-09-25T03:29:48.672Z,99821.34
2022-09-25T03:32:51.701Z,99818.47
2022-09-25T03:36:08.158Z,99821.53
2022-09-25T03:39:11.230Z,99827.53
2022-09-25T03:42:14.842Z,99818.47
2022-09-25T03:45:17.969Z,99825.78
2022-09-25T03:48:21.411Z,99824.78
2022-09-25T03:51:27.340Z,99824.69
2022-09-25T03:54:30.349Z,99820.22
2022-09-25T03:57:33.793Z,99821.09
2022-09-25T04:00:36.806Z,99813.81
2022-09-25T04:03:40.357Z,99815.47
2022-09-25T04:06:44.751Z,99811.78
2022-09-25T04:09:47.671Z,99810.91
2022-09-25T04:12:55.514Z,99803.59
2022-09-25T04:15:59.520Z,99803.91
2022-09-25T04:19:02.479Z,99803.03
2022-09-25T04:22:06.835Z,99799.31
2022-09-25T04:25:10.610Z,99798.44
2022-09-25T04:28:13.883Z,99794.75
2022-09-25T04:31:16.879Z,99796.50
2022-09-25T04:34:18.834Z,99803.69
2022-09-25T04:37:26.512Z,99806.41
2022-09-25T04:40:29.743Z,99802.72
2022-09-25T04:43:34.164Z,99808.38
2022-09-25T04:46:36.894Z,99802.81
2022-09-25T04:49:39.638Z,99796.59
2022-09-25T04:52:43.952Z,99813.91
2022-09-25T04:55:48.096Z,99817.31
2022-09-25T04:58:50.802Z,99811.19
2022-09-25T05:01:54.215Z,99806.25
2022-09-25T05:04:56.994Z,99817.47
2022-09-25T05:08:02.924Z,99811.16
2022-09-25T05:11:05.813Z,99804.25
2022-09-25T05:14:09.389Z,99816.28
2022-09-25T05:17:12.592Z,99815.50
2022-09-25T05:20:15.684Z,99811.72
2022-09-25T05:23:19.799Z,99807.06
2022-09-25T05:26:22.752Z,99803.38
2022-09-25T05:29:25.571Z,99814.91
2022-09-25T05:32:28.647Z,99802.00
2022-09-25T05:35:33.165Z,99804.72
2022-09-25T05:38:39.541Z,99806.25
2022-09-25T05:41:42.234Z,99816.06
2022-09-25T05:44:44.863Z,99815.41
2022-09-25T05:47:48.163Z,99808.88
2022-09-25T05:50:52.738Z,99809.66
2022-09-25T05:53:56.808Z,99812.38
2022-09-25T05:56:59.769Z,99810.63
2022-09-25T06:00:03.146Z,99809.84
2022-09-25T06:03:06.555Z,99811.16
2022-09-25T06:06:09.771Z,99817.63
2022-09-25T06:09:13.738Z,99816.69
2022-09-25T06:12:16.679Z,99820.19
2022-09-25T06:15:19.358Z,99816.38
2022-09-25T06:18:24.259Z,99806.47
2022-09-25T06:21:27.270Z,99814.13
2022-09-25T06:24:31.617Z,99811.19
2022-09-25T06:27:34.849Z,99810.03
2022-09-25T06:30:38.700Z,99810.66
2022-09-25T06:33:42.266Z,99809.69
2022-09-25T06:36:45.187Z,99816.78
2022-09-25T06:39:49.195Z,99812.13
2022-09-25T06:42:56.955Z,99816.59
2022-09-25T06:46:04.003Z,99820.06
2022-09-25T06:49:07.234Z,99820.06
2022-09-25T06:52:10.280Z,99820.94
2022-09-25T06:55:14.883Z,99820.66
2022-09-25T06:58:20.682Z,99821.41
2022-09-25T07:01:23.356Z,99817.59
2022-09-25T07:04:26.425Z,99821.19
2022-09-25T07:07:30.076Z,99821.00
2022-09-25T07:10:34.017Z,99830.94
2022-09-25T07:13:37.900Z,99829.19
2022-09-25T07:16:40.561Z,99834.72
2022-09-25T07:19:43.621Z,99829.38
2022-09-25T07:22:46.206Z,99829.38
2022-09-25T07:25:50.929Z,99834.03
2022-09-25T07:28:56.169Z,99829.56
2022-09-25T07:32:00.281Z,99832.19
2022-09-25T07:35:03.153Z,99838.97
2022-09-25T07:38:06.275Z,99831.16
2022-09-25T07:41:13.454Z,99827.91
2022-09-25T07:44:37.937Z,99823.56
2022-09-25T07:47:39.583Z,99828.28
2022-09-25T07:50:42.556Z,99824.16
2022-09-25T07:53:46.171Z,99824.81
2022-09-25T07:56:50.414Z,99826.97
2022-09-25T07:59:53.457Z,99826.53
2022-09-25T08:02:58.003Z,99827.13
2022-09-25T08:06:02.652Z,99822.63
2022-09-25T08:09:10.108Z,99828.22
2022-09-25T08:12:15.555Z,99833.44
2022-09-25T08:15:18.539Z,99831.94
2022-09-25T08:18:21.700Z,99827.25
2022-09-25T08:21:24.387Z,99827.16
2022-09-25T08:24:27.466Z,99825.06
2022-09-25T08:27:32.012Z,99825.50
2022-09-25T08:30:35.161Z,99823.63
2022-09-25T08:33:38.146Z,99825.50
2022-09-25T08:36:40.822Z,99831.09
2022-09-25T08:39:43.970Z,99827.59
2022-09-25T08:42:51.653Z,99827.25
2022-09-25T08:46:13.975Z,99828.53
2022-09-25T08:49:20.500Z,99826.38
2022-09-25T08:52:23.417Z,99827.25
2022-09-25T08:55:50.053Z,99823.66
2022-09-25T08:59:02.524Z,99821.56
2022-09-25T09:02:13.854Z,99823.97
2022-09-25T09:05:21.569Z,99819.03
2022-09-25T09:08:29.131Z,99817.03
2022-09-25T09:11:37.580Z,99817.31
2022-09-25T09:14:46.113Z,99809.72
2022-09-25T09:17:48.848Z,99805.09
2022-09-25T09:20:54.714Z,99811.81
2022-09-25T09:24:06.214Z,99813.56
2022-09-25T09:27:23.349Z,99802.16
2022-09-25T09:30:36.690Z,99810.63
2022-09-25T09:33:52.371Z,99809.66
2022-09-25T09:37:02.197Z,99809.66
2022-09-25T09:40:19.974Z,99807.25
2022-09-25T09:43:37.010Z,99806.50
2022-09-25T09:46:50.005Z,99803.53
2022-09-25T09:49:59.004Z,99798.47
2022-09-25T09:53:04.743Z,99801.75
2022-09-25T09:56:14.850Z,99799.13
2022-09-25T09:59:22.936Z,99799.88
2022-09-25T10:02:34.502Z,99799.13
2022-09-25T10:05:40.664Z,99784.53
2022-09-25T10:08:43.797Z,99797.09
2022-09-25T10:11:50.429Z,99806.84
2022-09-25T10:14:53.479Z,99794.50
2022-09-25T10:18:00.763Z,99799.56
2022-09-25T10:21:11.077Z,99795.19
2022-09-25T10:24:49.781Z,99790.13
2022-09-25T10:27:52.865Z,99786.09
2022-09-25T10:30:56.958Z,99783.13
2022-09-25T10:34:04.313Z,99786.38
2022-09-25T10:37:20.211Z,99782.31
2022-09-25T10:40:28.155Z,99786.22
2022-09-25T10:43:30.936Z,99776.66
2022-09-25T10:46:53.400Z,99780.28
2022-09-25T10:50:13.540Z,99778.63
2022-09-25T10:53:30.997Z,99779.63
2022-09-25T10:56:39.101Z,99788.06
2022-09-25T10:59:48.879Z,99787.03
2022-09-25T11:02:56.698Z,99789.13
2022-09-25T11:06:05.632Z,99798.88
2022-09-25T11:09:14.406Z,99787.88
2022-09-25T11:12:23.751Z,99793.25
2022-09-25T11:15:28.720Z,99794.94
2022-09-25T11:18:40.939Z,99795.41
2022-09-25T11:21:59.911Z,99785.47
2022-09-25T11:25:12.565Z,99792.78
2022-09-25T11:28:28.908Z,99791.88
2022-09-25T11:31:38.027Z,99789.00
2022-09-25T11:35:06.030Z,99781.09
2022-09-25T11:38:43.702Z,99777.66
2022-09-25T11:41:49.431Z,99784.38
2022-09-25T11:44:59.350Z,99780.78
2022-09-25T11:48:07.866Z,99769.22
2022-09-25T11:51:19.874Z,99775.94
2022-09-25T11:54:36.717Z,99783.28
2022-09-25T11:57:49.620Z,99776.81
2022-09-25T12:01:01.266Z,99776.47
2022-09-25T12:04:30.225Z,99774.97
2022-09-25T12:07:47.578Z,99772.06
2022-09-25T12:11:01.814Z,99764.13
2022-09-25T12:14:14.093Z,99763.25
2022-09-25T12:17:24.037Z,99772.19
2022-09-25T12:20:33.815Z,99765.59
2022-09-25T12:23:44.855Z,99764.13
2022-09-25T12:26:57.337Z,99763.44
2022-09-25T12:30:12.235Z,99752.38
2022-09-25T12:33:32.634Z,99757.06
2022-09-25T12:36:41.570Z,99757.16
2022-09-25T12:39:51.707Z,99759.06
2022-09-25T12:43:03.169Z,99768.31
2022-09-25T12:46:12.284Z,99741.97
2022-09-25T12:49:21.424Z,99747.97
2022-09-25T12:52:29.701Z,99760.88
2022-09-25T12:55:39.209Z,99761.13
2022-09-25T12:58:57.664Z,99750.00
2022-09-25T13:02:06.200Z,99741.16
2022-09-25T13:05:18.144Z,99748.75
2022-09-25T13:08:28.763Z,99752.25
2022-09-25T13:11:39.635Z,99747.59
2022-09-25T13:14:52.459Z,99742.38
2022-09-25T13:17:55.968Z,99742.72
2022-09-25T13:21:00.908Z,99736.00
2022-09-25T13:24:09.410Z,99743.72
2022-09-25T13:27:19.122Z,99731.28
2022-09-25T13:30:26.532Z,99750.81
2022-09-25T13:33:30.105Z,99736.28
2022-09-25T13:36:40.632Z,99737.28
2022-09-25T13:40:05.083Z,99743.03
2022-09-25T13:43:20.963Z,99735.56
2022-09-25T13:46:25.804Z,99742.03
2022-09-25T13:49:35.746Z,99745.53
2022-09-25T13:53:16.086Z,99741.66
2022-09-25T13:56:28.093Z,99749.75
2022-09-25T13:59:39.393Z,99745.16
2022-09-25T14:02:47.640Z,99749.84
2022-09-25T14:05:50.747Z,99739.59
2022-09-25T14:08:56.836Z,99752.34
2022-09-25T14:12:08.458Z,99756.88
2022-09-25T14:15:21.925Z,99761.16
2022-09-25T14:18:37.373Z,99767.41
2022-09-25T14:21:40.373Z,99765.09
2022-09-25T14:24:45.597Z,99768.09
2022-09-25T14:27:52.760Z,99751.72
2022-09-25T14:31:08.212Z,99761.19
2022-09-25T14:34:53.271Z,99767.16
2022-09-25T14:38:20.488Z,99757.75
2022-09-25T14:41:44.306Z,99753.94
2022-09-25T14:45:14.397Z,99748.63
2022-09-25T14:48:20.218Z,99745.50
2022-09-25T14:51:27.680Z,99756.38
2022-09-25T14:54:36.494Z,99752.97
2022-09-25T14:57:39.841Z,99758.78
2022-09-25T15:00:47.724Z,99761.34
2022-09-25T15:03:51.215Z,99758.00
2022-09-25T15:07:02.651Z,99760.88
2022-09-25T15:10:28.621Z,99763.88
2022-09-25T15:13:34.462Z,99772.88
2022-09-25T15:16:56.989Z,99771.16
2022-09-25T15:20:02.497Z,99765.47
2022-09-25T15:23:10.386Z,99768.78
2022-09-25T15:26:18.649Z,99768.69
2022-09-25T15:29:23.839Z,99768.00
2022-09-25T15:32:28.547Z,99761.78
2022-09-25T15:35:32.631Z,99780.19
2022-09-25T15:38:39.895Z,99767.00
2022-09-25T15:41:44.501Z,99786.66
2022-09-25T15:44:47.815Z,99777.72
2022-09-25T15:47:54.972Z,99781.63
2022-09-25T15:51:00.160Z,99779.22
2022-09-25T15:54:06.435Z,99768.31
2022-09-25T15:57:13.382Z,99781.28
2022-09-25T16:00:39.624Z,99782.50
2022-09-25T16:04:06.961Z,99777.25
2022-09-25T16:07:28.306Z,99772.88
2022-09-25T16:10:34.466Z,99775.72
2022-09-25T16:13:40.514Z,99775.72
2022-09-25T16:16:49.846Z,99780.50
2022-09-25T16:20:05.172Z,99783.22
2022-09-25T16:23:22.933Z,99780.50
2022-09-25T16:26:31.322Z,99773.72
2022-09-25T16:29:39.117Z,99786.13
2022-09-25T16:32:47.201Z,99792.03
2022-09-25T16:36:10.613Z,99792.91
2022-09-25T16:39:23.085Z,99793.00
2022-09-25T16:42:39.547Z,99777.94
2022-09-25T16:45:59.008Z,99787.53
2022-09-25T16:49:04.806Z,99800.19
2022-09-25T16:52:08.921Z,99802.56
2022-09-25T16:55:21.423Z,99797.53
2022-09-25T16:58:25.624Z,99803.84
2022-09-25T17:01:29.488Z,99814.34
2022-09-25T17:04:35.972Z,99812.41
2022-09-25T17:07:38.668Z,99815.22
2022-09-25T17:10:41.919Z,99813.88
2022-09-25T17:13:46.743Z,99815.72
2022-09-25T17:16:49.538Z,99820.19
2022-09-25T17:19:52.253Z,99814.38
2022-09-25T17:22:55.874Z,99812.81
2022-09-25T17:26:03.708Z,99826.34
2022-09-25T17:29:07.964Z,99825.66
2022-09-25T17:32:14.090Z,99820.09
2022-09-25T17:35:29.766Z,99814.47
2022-09-25T17:38:34.042Z,99809.41
2022-09-25T17:41:38.373Z,99822.22
2022-09-25T17:44:43.797Z,99828.38
2022-09-25T17:47:46.622Z,99820.06
2022-09-25T17:50:49.295Z,99818.81
2022-09-25T17:53:53.935Z,99813.16
2022-09-25T17:56:57.039Z,99811.16
2022-09-25T18:00:01.671Z,99821.06
2022-09-25T18:03:04.549Z,99819.22
2022-09-25T18:06:07.426Z,99833.47
2022-09-25T18:09:10.211Z,99835.81
2022-09-25T18:12:12.943Z,99840.03
2022-09-25T18:15:18.411Z,99829.47
2022-09-25T18:18:21.594Z,99837.50
2022-09-25T18:21:41.724Z,99839.53
2022-09-25T18:24:45.032Z,99845.94
2022-09-25T18:27:48.099Z,99840.72
2022-09-25T18:30:52.548Z,99834.41
2022-09-25T18:33:56.097Z,99832.19
2022-09-25T18:36:58.898Z,99833.16
2022-09-25T18:40:02.219Z,99828.69
2022-09-25T18:43:04.903Z,99830.63
2022-09-25T18:46:09.530Z,99835.19
2022-09-25T18:49:12.610Z,99833.44
2022-09-25T18:52:15.782Z,99843.75
2022-09-25T18:55:18.607Z,99843.84
2022-09-25T18:58:21.578Z,99850.06
2022-09-25T19:01:26.071Z,99849.19
2022-09-25T19:04:28.945Z,99845.59
2022-09-25T19:07:32.050Z,99849.47
2022-09-25T19:10:35.259Z,99844.16
2022-09-25T19:13:38.235Z,99850.47
2022-09-25T19:16:42.633Z,99847.75
2022-09-25T19:19:45.759Z,99845.38
2022-09-25T19:22:48.632Z,99848.03
2022-09-25T19:25:55.793Z,99850.06
2022-09-25T19:28:58.483Z,99847.22
2022-09-25T19:32:03.932Z,99846.56
2022-09-25T19:35:07.303Z,99860.25
2022-09-25T19:38:12.760Z,99864.25
2022-09-25T19:41:17.888Z,99860.66
2022-09-25T19:44:21.220Z,99858.44
2022-09-25T19:47:25.235Z,99868.41
2022-09-25T19:50:28.145Z,99864.53
2022-09-25T19:53:31.361Z,99861.06
2022-09-25T19:56:34.382Z,99857.72
2022-09-25T19:59:37.394Z,99857.06
2022-09-25T20:02:46.105Z,99844.78
2022-09-25T20:05:49.652Z,99846.94
2022-09-25T20:08:57.453Z,99849.00
2022-09-25T20:12:00.578Z,99865.00
2022-09-25T20:15:03.626Z,99861.22
2022-09-25T20:18:07.868Z,99861.41
2022-09-25T20:21:11.170Z,99868.59
2022-09-25T20:24:14.077Z,99863.16
2022-09-25T20:27:21.000Z,99863.16
2022-09-25T20:30:25.711Z,99856.75
2022-09-25T20:33:34.694Z,99854.03
2022-09-25T20:36:39.147Z,99857.63
2022-09-25T20:39:41.891Z,99864.91
2022-09-25T20:42:44.634Z,99856.75
2022-09-25T20:45:57.101Z,99861.41
2022-09-25T20:49:02.085Z,99854.34
2022-09-25T20:52:05.155Z,99852.50
2022-09-25T20:55:08.487Z,99852.59
2022-09-25T20:58:11.648Z,99850.94
2022-09-25T21:01:17.510Z,99837.44
2022-09-25T21:04:21.634Z,99841.22
2022-09-25T21:07:26.392Z,99847.50
2022-09-25T21:10:29.590Z,99846.75
2022-09-25T21:13:34.010Z,99835.88
2022-09-25T21:16:37.037Z,99842.19
2022-09-25T21:19:41.529Z,99835.00
2022-09-25T21:22:44.263Z,99838.69
2022-09-25T21:25:46.977Z,99839.56
2022-09-25T21:28:52.532Z,99832.47
2022-09-25T21:31:55.701Z,99837.03
2022-09-25T21:35:00.069Z,99840.84
2022-09-25T21:38:03.975Z,99842.69
2022-09-25T21:41:09.352Z,99842.75
2022-09-25T21:44:14.848Z,99850.13
2022-09-25T21:47:17.995Z,99844.13
2022-09-25T21:50:22.048Z,99831.66
2022-09-25T21:53:26.122Z,99825.66
2022-09-25T21:56:31.500Z,99821.66
2022-09-25T21:59:34.536Z,99818.59
2022-09-25T22:02:38.500Z,99823.91
2022-09-25T22:05:42.615Z,99838.91
2022-09-25T22:08:47.740Z,99806.03
2022-09-25T22:11:51.484Z,99824.25
2022-09-25T22:14:54.440Z,99828.53
2022-09-25T22:17:57.107Z,99829.19
2022-09-25T22:21:01.775Z,99819.66
2022-09-25T22:24:04.976Z,99817.25
2022-09-25T22:27:07.754Z,99815.00
2022-09-25T22:30:11.851Z,99820.53
2022-09-25T22:33:14.846Z,99821.50
2022-09-25T22:36:19.217Z,99819.03
2022-09-25T22:39:22.330Z,99824.81
2022-09-25T22:42:25.251Z,99820.69
2022-09-25T22:45:28.188Z,99819.28
2022-09-25T22:48:31.557Z,99820.47
2022-09-25T22:51:36.062Z,99821.63
2022-09-25T22:54:39.010Z,99815.66
2022-09-25T22:57:41.714Z,99814.94
2022-09-25T23:00:45.107Z,99811.59
2022-09-25T23:03:48.234Z,99811.94
2022-09-25T23:06:52.904Z,99809.47
2022-09-25T23:09:55.797Z,99809.63
2022-09-25T23:12:58.838Z,99814.44
2022-09-25T23:16:05.713Z,99814.69
2022-09-25T23:19:08.441Z,99816.75
2022-09-25T23:22:12.563Z,99805.53
2022-09-25T23:25:15.796Z,99803.25
2022-09-25T23:28:18.607Z,99798.88
2022-09-25T23:31:22.372Z,99797.34
2022-09-25T23:34:25.634Z,99783.28
2022-09-25T23:37:30.511Z,99791.66
2022-09-25T23:40:33.319Z,99785.59
2022-09-25T23:43:35.991Z,99781.31
2022-09-25T23:46:40.882Z,99777.97
2022-09-25T23:49:44.444Z,99767.63
2022-09-25T23:52:48.489Z,99781.31
2022-09-25T23:55:51.660Z,99795.16
2022-09-25T23:58:56.170Z,99784.66
